createdAt,value
2017-07-03T00:00:58.701Z,12.09
2017-07-03T00:10:58.678Z,11.99
2017-07-03T00:20:58.684Z,11.82
2017-07-03T00:30:58.698Z,11.71
2017-07-03T00:40:59.489Z,11.74
2017-07-03T00:50:58.921Z,11.62
2017-07-03T01:00:58.769Z,11.53
2017-07-03T01:10:58.736Z,11.28
2017-07-03T01:20:58.686Z,11.25
2017-07-03T01:30:58.785Z,11.11
2017-07-03T01:40:58.768Z,10.92
2017-07-03T01:50:58.691Z,10.77
2017-07-03T02:00:58.863Z,10.8
2017-07-03T02:10:58.730Z,10.66
2017-07-03T02:20:58.917Z,10.65
2017-07-03T02:30:58.743Z,10.68
2017-07-03T02:40:58.879Z,10.86
2017-07-03T02:50:58.783Z,10.63
2017-07-03T03:00:58.900Z,10.56
2017-07-03T03:10:58.793Z,10.42
2017-07-03T03:20:58.831Z,10.51
2017-07-03T03:30:58.767Z,10.4
2017-07-03T03:40:58.940Z,10.55
2017-07-03T03:50:58.828Z,10.78
2017-07-03T04:00:58.952Z,10.73
2017-07-03T04:10:58.853Z,11.11
2017-07-03T04:20:58.821Z,11.34
2017-07-03T04:30:58.892Z,11.34
2017-07-03T04:40:58.831Z,11.5
2017-07-03T04:50:58.946Z,11.77
2017-07-03T05:00:58.933Z,12.16
2017-07-03T05:10:58.818Z,13.56
2017-07-03T05:20:58.879Z,13.46
2017-07-03T05:30:58.981Z,13.74
2017-07-03T05:40:59.069Z,13.79
2017-07-03T05:50:58.976Z,14.42
2017-07-03T06:00:58.970Z,17.94
2017-07-03T06:10:59.053Z,22.27
2017-07-03T06:20:58.975Z,24.22
2017-07-03T06:30:58.930Z,25.3
2017-07-03T06:40:59.017Z,26.73
2017-07-03T06:50:58.934Z,26.95
2017-07-03T07:00:59.005Z,27.98
2017-07-03T07:10:59.009Z,26.42
2017-07-03T07:20:59.333Z,25.3
2017-07-03T07:30:59.010Z,25.83
2017-07-03T07:40:59.425Z,27.43
2017-07-03T07:50:58.979Z,28.85
2017-07-03T08:00:58.950Z,30
2017-07-03T08:10:58.946Z,28.65
2017-07-03T08:20:59.528Z,30.56
2017-07-03T08:30:58.975Z,31.38
2017-07-03T08:40:58.981Z,31.58
2017-07-03T08:50:58.941Z,32.33
2017-07-03T09:00:58.946Z,31.24
2017-07-03T09:10:58.962Z,31.3
2017-07-03T09:20:58.976Z,25.87
2017-07-03T09:30:58.953Z,23.38
2017-07-03T09:40:59.019Z,22.84
2017-07-03T09:50:59.003Z,22.44
2017-07-03T10:00:59.062Z,22.28
2017-07-03T10:10:59.169Z,22.74
2017-07-03T10:20:59.025Z,22.32
2017-07-03T10:31:00.029Z,22.68
2017-07-03T10:40:59.038Z,22.71
2017-07-03T10:50:58.968Z,22.67
2017-07-03T11:00:59.061Z,22.92
2017-07-03T11:10:59.041Z,22.86
2017-07-03T11:20:58.993Z,23.45
2017-07-03T11:30:58.993Z,23.38
2017-07-03T11:40:58.987Z,23.61
2017-07-03T11:50:58.978Z,23.97
2017-07-03T12:00:58.975Z,23.72
2017-07-03T12:10:58.996Z,23.97
2017-07-03T12:20:58.968Z,23.95
2017-07-03T12:30:58.996Z,24.52
2017-07-03T12:40:59.029Z,26.24
2017-07-03T12:50:59.051Z,25.12
2017-07-03T13:00:59.223Z,25.31
2017-07-03T13:10:59.032Z,25.77
2017-07-03T13:20:59.009Z,25.83
2017-07-03T13:30:59.020Z,25.16
2017-07-03T13:41:00.394Z,25.32
2017-07-03T13:51:00.058Z,25.12
2017-07-03T14:01:00.637Z,25.02
2017-07-03T14:10:59.291Z,24.07
2017-07-03T14:20:59.185Z,23.89
2017-07-03T14:30:59.411Z,23.5
2017-07-03T14:40:59.084Z,22.82
2017-07-03T14:50:59.364Z,23.64
2017-07-03T15:10:59.391Z,23.65
2017-07-03T15:20:59.272Z,23.5
2017-07-03T15:30:59.840Z,23.53
2017-07-03T15:40:59.291Z,23.9
2017-07-03T15:50:59.423Z,23.76
2017-07-03T16:00:59.433Z,23.64
2017-07-03T16:10:59.221Z,23.43
2017-07-03T16:20:59.274Z,23.35
2017-07-03T16:30:59.756Z,23.01
2017-07-03T16:41:00.724Z,22.57
2017-07-03T16:51:00.584Z,22.53
2017-07-03T17:00:59.367Z,22.31
2017-07-03T17:11:00.639Z,22.32
2017-07-03T17:20:59.109Z,22.22
2017-07-03T17:30:59.111Z,22.06
2017-07-03T17:40:59.192Z,22.01
2017-07-03T17:50:59.135Z,21.85
2017-07-03T18:00:59.749Z,22.01
2017-07-03T18:10:59.295Z,21.92
2017-07-03T18:20:59.153Z,21.71
2017-07-03T18:30:59.203Z,21.46
2017-07-03T18:40:59.060Z,21.32
2017-07-03T18:50:59.098Z,21.26
2017-07-03T19:00:59.062Z,21.13
2017-07-03T19:10:59.109Z,20.93
2017-07-03T19:20:59.073Z,20.74
2017-07-03T19:30:59.124Z,20.64
2017-07-03T19:40:59.293Z,20.27
2017-07-03T19:50:59.143Z,20.02
2017-07-03T20:00:59.089Z,19.9
2017-07-03T20:10:59.193Z,19.73
2017-07-03T20:20:59.153Z,19.79
2017-07-03T20:30:59.396Z,19.68
2017-07-03T20:40:59.073Z,19.66
2017-07-03T20:50:59.124Z,19.61
2017-07-03T21:01:11.185Z,19.43
2017-07-03T21:10:59.886Z,19.35
2017-07-03T21:21:03.768Z,19.2
2017-07-03T21:31:03.328Z,19.01
2017-07-03T21:41:23.717Z,18.98
2017-07-03T21:51:13.393Z,18.76
2017-07-03T22:01:10.450Z,18.49
2017-07-03T22:10:59.319Z,18.09
2017-07-03T22:20:59.188Z,17.92
2017-07-03T22:30:59.204Z,17.78
2017-07-03T22:40:59.271Z,17.74
2017-07-03T22:50:59.278Z,17.71
2017-07-03T23:00:59.975Z,17.66
2017-07-03T23:10:59.309Z,17.67
2017-07-03T23:20:59.210Z,17.74
2017-07-03T23:30:59.218Z,17.54
2017-07-03T23:40:59.321Z,17.53
2017-07-03T23:50:59.271Z,17.53
